PWSweather.com
Personal Weather Stations
Station Observations
REBOX73
Petalia At Mount Pantokrator, CorfuGR 49081

Petalia At Mount PantokratorCorfuGR 49081

Lat: 39.747915, Lon: 19.841466

Elevation: 2132

Station Type: ws1080

http://pantokratoras-kerkyra.meteoclub.gr/

High Low Average
Temperature 46.9°F8.3°C 38.7°F3.7°C 42.2°F5.7°C
Dew Point 46.8°F8.2°C 37.6°F3.1°C 41.6°F5.3°C
Winds 15.0 mph 24.1 kmh Calm Calm 5.0 mph S8.0 kmh S
Wind Gusts 32.0 mph51.5 kmh 1.0 mph1.6 kmh 14.0 mph22.5 kmh
Humidity 100% 92% 98%
Pressure 30.04 in1017.3 mb 29.70 in1005.8 mb -
Precipitation 3.46 in87.9 mm - -
Hour Temp Dew Point Humidity Winds Wind Gusts Pressure Precip Precip Rate Daily Precip Total
12:00 AM 38.7°F3.7°C 37.6°F3.1°C 96% 1.0 mph E1.6 kmh E 3.0 mph4.8 kmh 30.04 in1017.3 mb 0.00 in0.0 mm 0.00 in0.0 mm 0.00 in0.0 mm
12:15 AM 38.8°F3.8°C 37.8°F3.2°C 96% 1.0 mph E1.6 kmh E 3.0 mph4.8 kmh 30.04 in1017.3 mb 0.00 in0.0 mm 0.00 in0.0 mm 0.00 in0.0 mm
12:30 AM 39.2°F4.0°C 38.2°F3.4°C 96% 1.0 mph E1.6 kmh E 6.0 mph9.7 kmh 30.03 in1016.9 mb 0.00 in0.0 mm 0.00 in0.0 mm 0.00 in0.0 mm
12:45 AM 39.2°F4.0°C 37.9°F3.3°C 95% 1.0 mph ESE1.6 kmh ESE 5.0 mph8.0 kmh 30.02 in1016.6 mb 0.00 in0.0 mm 0.00 in0.0 mm 0.00 in0.0 mm
01:00 AM 39.4°F4.1°C 38.3°F3.5°C 96% 1.0 mph SSE1.6 kmh SSE 6.0 mph9.7 kmh 30.02 in1016.6 mb 0.00 in0.0 mm 0.00 in0.0 mm 0.00 in0.0 mm
01:15 AM 39.7°F4.3°C 38.7°F3.7°C 96% 1.0 mph ESE1.6 kmh ESE 5.0 mph8.0 kmh 30.03 in1016.9 mb 0.00 in0.0 mm 0.00 in0.0 mm 0.00 in0.0 mm
01:30 AM 39.9°F4.4°C 38.6°F3.7°C 95% 1.0 mph ESE1.6 kmh ESE 7.0 mph11.3 kmh 30.03 in1016.9 mb 0.00 in0.0 mm 0.00 in0.0 mm 0.00 in0.0 mm
01:45 AM 39.9°F4.4°C 38.6°F3.7°C 95% 1.0 mph SE1.6 kmh SE 6.0 mph9.7 kmh 30.03 in1016.9 mb 0.00 in0.0 mm 0.00 in0.0 mm 0.00 in0.0 mm
02:00 AM 40.3°F4.6°C 39.0°F3.9°C 95% 1.0 mph SE1.6 kmh SE 6.0 mph9.7 kmh 30.03 in1016.9 mb 0.00 in0.0 mm 0.00 in0.0 mm 0.00 in0.0 mm
02:15 AM 40.3°F4.6°C 38.7°F3.7°C 94% 2.0 mph SE3.2 kmh SE 10.0 mph16.1 kmh 30.03 in1016.9 mb 0.00 in0.0 mm 0.00 in0.0 mm 0.00 in0.0 mm
02:30 AM 40.5°F4.7°C 38.9°F3.8°C 94% 2.0 mph SSE3.2 kmh SSE 8.0 mph12.9 kmh 30.03 in1016.9 mb 0.00 in0.0 mm 0.00 in0.0 mm 0.00 in0.0 mm
02:45 AM 40.5°F4.7°C 38.9°F3.8°C 94% 2.0 mph SE3.2 kmh SE 9.0 mph14.5 kmh 30.02 in1016.6 mb 0.00 in0.0 mm 0.00 in0.0 mm 0.00 in0.0 mm
03:00 AM 40.5°F4.7°C 39.1°F3.9°C 95% 2.0 mph SSE3.2 kmh SSE 9.0 mph14.5 kmh 30.02 in1016.6 mb 0.00 in0.0 mm 0.00 in0.0 mm 0.00 in0.0 mm
03:15 AM 40.6°F4.8°C 39.3°F4.1°C 95% 3.0 mph S4.8 kmh S 10.0 mph16.1 kmh 30.01 in1016.3 mb 0.00 in0.0 mm 0.00 in0.0 mm 0.00 in0.0 mm
03:30 AM 40.6°F4.8°C 39.0°F3.9°C 94% 3.0 mph SW4.8 kmh SW 11.0 mph17.7 kmh 30.01 in1016.3 mb 0.00 in0.0 mm 0.00 in0.0 mm 0.00 in0.0 mm
03:45 AM 40.6°F4.8°C 38.8°F3.8°C 93% 4.0 mph S6.4 kmh S 15.0 mph24.1 kmh 30.01 in1016.3 mb 0.00 in0.0 mm 0.00 in0.0 mm 0.00 in0.0 mm
04:00 AM 40.6°F4.8°C 39.0°F3.9°C 94% 4.0 mph S6.4 kmh S 10.0 mph16.1 kmh 30.01 in1016.3 mb 0.00 in0.0 mm 0.00 in0.0 mm 0.00 in0.0 mm
04:15 AM 40.6°F4.8°C 38.8°F3.8°C 93% 3.0 mph S4.8 kmh S 12.0 mph19.3 kmh 30.01 in1016.3 mb 0.00 in0.0 mm 0.00 in0.0 mm 0.00 in0.0 mm
04:45 AM 40.5°F4.7°C 38.6°F3.7°C 93% 2.0 mph S3.2 kmh S 9.0 mph14.5 kmh 30.00 in1015.9 mb 0.00 in0.0 mm 0.00 in0.0 mm 0.00 in0.0 mm
05:00 AM 40.3°F4.6°C 38.1°F3.4°C 92% 3.0 mph SW4.8 kmh SW 10.0 mph16.1 kmh 29.99 in1015.6 mb 0.00 in0.0 mm 0.00 in0.0 mm 0.00 in0.0 mm
05:15 AM 40.5°F4.7°C 38.6°F3.7°C 93% 4.0 mph SSW6.4 kmh SSW 11.0 mph17.7 kmh 29.98 in1015.2 mb 0.00 in0.0 mm 0.00 in0.0 mm 0.00 in0.0 mm
05:30 AM 40.3°F4.6°C 38.7°F3.7°C 94% 2.0 mph W3.2 kmh W 7.0 mph11.3 kmh 29.98 in1015.2 mb 0.00 in0.0 mm 0.00 in0.0 mm 0.00 in0.0 mm
05:45 AM 40.3°F4.6°C 39.0°F3.9°C 95% 3.0 mph SSW4.8 kmh SSW 13.0 mph20.9 kmh 29.98 in1015.2 mb 0.01 in0.3 mm 0.04 in1.0 mm 0.01 in0.3 mm
06:00 AM 40.3°F4.6°C 39.0°F3.9°C 95% 6.0 mph SSW9.7 kmh SSW 12.0 mph19.3 kmh 29.97 in1014.9 mb 0.03 in0.8 mm 0.03 in0.8 mm 0.03 in0.8 mm
06:15 AM 40.3°F4.6°C 39.2°F4.0°C 96% 6.0 mph S9.7 kmh S 17.0 mph27.4 kmh 29.98 in1015.2 mb 0.06 in1.5 mm 0.12 in3.0 mm 0.06 in1.5 mm
06:30 AM 40.3°F4.6°C 39.2°F4.0°C 96% 6.0 mph SSW9.7 kmh SSW 21.0 mph33.8 kmh 29.96 in1014.6 mb 0.09 in2.3 mm 0.12 in3.0 mm 0.09 in2.3 mm
06:45 AM 39.9°F4.4°C 38.9°F3.8°C 96% 7.0 mph SSW11.3 kmh SSW 19.0 mph30.6 kmh 29.96 in1014.6 mb 0.12 in3.0 mm 0.12 in3.0 mm 0.13 in3.3 mm
07:00 AM 39.9°F4.4°C 39.1°F3.9°C 97% 8.0 mph SSW12.9 kmh SSW 19.0 mph30.6 kmh 29.95 in1014.2 mb 0.13 in3.3 mm 0.01 in0.3 mm 0.16 in4.1 mm
07:15 AM 39.9°F4.4°C 39.1°F3.9°C 97% 8.0 mph SSW12.9 kmh SSW 15.0 mph24.1 kmh 29.96 in1014.6 mb 0.17 in4.3 mm 0.16 in4.1 mm 0.22 in5.6 mm
07:30 AM 39.9°F4.4°C 39.1°F3.9°C 97% 6.0 mph SSW9.7 kmh SSW 15.0 mph24.1 kmh 29.98 in1015.2 mb 0.21 in5.3 mm 0.16 in4.1 mm 0.31 in7.9 mm
07:45 AM 40.3°F4.6°C 39.5°F4.2°C 97% 6.0 mph SSW9.7 kmh SSW 13.0 mph20.9 kmh 29.98 in1015.2 mb 0.28 in7.1 mm 0.28 in7.1 mm 0.41 in10.4 mm
08:00 AM 40.3°F4.6°C 39.5°F4.2°C 97% 5.0 mph SSW8.0 kmh SSW 13.0 mph20.9 kmh 29.97 in1014.9 mb 0.37 in9.4 mm 0.12 in3.0 mm 0.53 in13.5 mm
08:15 AM 40.6°F4.8°C 40.6°F4.8°C 100% 5.0 mph S8.0 kmh S 14.0 mph22.5 kmh 29.97 in1014.9 mb 0.37 in9.4 mm 0.00 in0.0 mm 0.60 in15.2 mm
08:30 AM 41.2°F5.1°C 41.2°F5.1°C 100% 7.0 mph SSW11.3 kmh SSW 16.0 mph25.7 kmh 29.97 in1014.9 mb 0.36 in9.1 mm 0.00 in0.0 mm 0.68 in17.3 mm
08:45 AM 41.4°F5.2°C 41.4°F5.2°C 100% 6.0 mph SSW9.7 kmh SSW 17.0 mph27.4 kmh 29.97 in1014.9 mb 0.35 in8.9 mm 0.00 in0.0 mm 0.77 in19.6 mm
09:00 AM 42.1°F5.6°C 42.1°F5.6°C 100% 6.0 mph SSW9.7 kmh SSW 15.0 mph24.1 kmh 29.97 in1014.9 mb 0.35 in8.9 mm 0.00 in0.0 mm 0.87 in22.1 mm
09:15 AM 42.6°F5.9°C 42.4°F5.8°C 99% 9.0 mph S14.5 kmh S 22.0 mph35.4 kmh 29.95 in1014.2 mb 0.37 in9.4 mm 0.08 in2.0 mm 0.97 in24.6 mm
09:30 AM 41.9°F5.5°C 41.9°F5.5°C 100% 6.0 mph SSW9.7 kmh SSW 17.0 mph27.4 kmh 29.96 in1014.6 mb 0.41 in10.4 mm 0.16 in4.1 mm 1.09 in27.7 mm
09:45 AM 42.3°F5.7°C 42.3°F5.7°C 100% 5.0 mph SW8.0 kmh SW 12.0 mph19.3 kmh 29.96 in1014.6 mb 0.43 in10.9 mm 0.08 in2.0 mm 1.20 in30.5 mm
10:00 AM 42.1°F5.6°C 42.1°F5.6°C 100% 4.0 mph SW6.4 kmh SW 10.0 mph16.1 kmh 29.95 in1014.2 mb 0.46 in11.7 mm 0.04 in1.0 mm 1.34 in34.0 mm
10:15 AM 41.7°F5.4°C 41.7°F5.4°C 100% 4.0 mph S6.4 kmh S 14.0 mph22.5 kmh 29.95 in1014.2 mb 0.51 in13.0 mm 0.20 in5.1 mm 1.49 in37.8 mm
10:30 AM 43.0°F6.1°C 42.7°F5.9°C 99% 6.0 mph S9.7 kmh S 17.0 mph27.4 kmh 29.95 in1014.2 mb 0.50 in12.7 mm 0.00 in0.0 mm 1.60 in40.6 mm
10:45 AM 43.5°F6.4°C 43.3°F6.3°C 99% 8.0 mph SSW12.9 kmh SSW 22.0 mph35.4 kmh 29.94 in1013.9 mb 0.44 in11.2 mm 0.00 in0.0 mm 1.65 in41.9 mm
11:00 AM 43.9°F6.6°C 43.6°F6.4°C 99% 6.0 mph SSW9.7 kmh SSW 18.0 mph29.0 kmh 29.93 in1013.5 mb 0.35 in8.9 mm 0.00 in0.0 mm 1.71 in43.4 mm
11:15 AM 44.2°F6.8°C 44.0°F6.7°C 99% 5.0 mph SW8.0 kmh SW 14.0 mph22.5 kmh 29.94 in1013.9 mb 0.30 in7.6 mm 0.00 in0.0 mm 1.79 in45.5 mm
11:30 AM 44.4°F6.9°C 44.2°F6.8°C 99% 6.0 mph SW9.7 kmh SW 17.0 mph27.4 kmh 29.93 in1013.5 mb 0.26 in6.6 mm 0.00 in0.0 mm 1.86 in47.2 mm
11:45 AM 44.6°F7.0°C 44.3°F6.8°C 99% 7.0 mph SSW11.3 kmh SSW 17.0 mph27.4 kmh 29.93 in1013.5 mb 0.28 in7.1 mm 0.08 in2.0 mm 1.94 in49.3 mm
12:00 PM 44.6°F7.0°C 44.3°F6.8°C 99% 7.0 mph S11.3 kmh S 19.0 mph30.6 kmh 29.91 in1012.9 mb 0.24 in6.1 mm 0.00 in0.0 mm 1.94 in49.3 mm
12:15 PM 44.6°F7.0°C 44.3°F6.8°C 99% 5.0 mph SSE8.0 kmh SSE 14.0 mph22.5 kmh 29.91 in1012.9 mb 0.16 in4.1 mm 0.00 in0.0 mm 1.94 in49.3 mm
12:30 PM 45.0°F7.2°C 44.7°F7.1°C 99% 6.0 mph SSW9.7 kmh SSW 15.0 mph24.1 kmh 29.89 in1012.2 mb 0.09 in2.3 mm 0.00 in0.0 mm 1.94 in49.3 mm
12:45 PM 45.7°F7.6°C 45.4°F7.4°C 99% 6.0 mph SSW9.7 kmh SSW 17.0 mph27.4 kmh 29.87 in1011.5 mb 0.01 in0.3 mm 0.00 in0.0 mm 1.95 in49.5 mm
01:00 PM 46.2°F7.9°C 46.0°F7.8°C 99% 7.0 mph SSW11.3 kmh SSW 16.0 mph25.7 kmh 29.87 in1011.5 mb 0.01 in0.3 mm 0.00 in0.0 mm 1.95 in49.5 mm
01:15 PM 46.0°F7.8°C 45.8°F7.7°C 99% 7.0 mph SW11.3 kmh SW 19.0 mph30.6 kmh 29.86 in1011.2 mb 0.02 in0.5 mm 0.04 in1.0 mm 1.96 in49.8 mm
01:30 PM 45.7°F7.6°C 45.4°F7.4°C 99% 7.0 mph S11.3 kmh S 22.0 mph35.4 kmh 29.86 in1011.2 mb 0.19 in4.8 mm 0.68 in17.3 mm 2.13 in54.1 mm
01:45 PM 46.6°F8.1°C 46.3°F7.9°C 99% 8.0 mph SSW12.9 kmh SSW 23.0 mph37.0 kmh 29.86 in1011.2 mb 0.27 in6.9 mm 0.32 in8.1 mm 2.22 in56.4 mm
02:00 PM 46.6°F8.1°C 46.3°F7.9°C 99% 9.0 mph SSW14.5 kmh SSW 25.0 mph40.2 kmh 29.84 in1010.5 mb 0.28 in7.1 mm 0.01 in0.3 mm 2.23 in56.6 mm
02:15 PM 46.6°F8.1°C 46.3°F7.9°C 99% 8.0 mph S12.9 kmh S 32.0 mph51.5 kmh 29.85 in1010.8 mb 0.28 in7.1 mm 0.00 in0.0 mm 2.24 in56.9 mm
02:30 PM 46.2°F7.9°C 46.0°F7.8°C 99% 9.0 mph S14.5 kmh S 21.0 mph33.8 kmh 29.83 in1010.2 mb 0.10 in2.5 mm 0.00 in0.0 mm 2.24 in56.9 mm
02:45 PM 46.2°F7.9°C 46.0°F7.8°C 99% 7.0 mph SW11.3 kmh SW 22.0 mph35.4 kmh 29.83 in1010.2 mb 0.02 in0.5 mm 0.00 in0.0 mm 2.24 in56.9 mm
03:00 PM 45.9°F7.7°C 45.6°F7.6°C 99% 6.0 mph SSW9.7 kmh SSW 19.0 mph30.6 kmh 29.83 in1010.2 mb 0.00 in0.0 mm 0.00 in0.0 mm 2.24 in56.9 mm
03:15 PM 46.0°F7.8°C 45.8°F7.7°C 99% 6.0 mph S9.7 kmh S 17.0 mph27.4 kmh 29.82 in1009.8 mb 0.00 in0.0 mm 0.00 in0.0 mm 2.24 in56.9 mm
03:30 PM 46.2°F7.9°C 46.0°F7.8°C 99% 6.0 mph SSW9.7 kmh SSW 16.0 mph25.7 kmh 29.82 in1009.8 mb 0.00 in0.0 mm 0.00 in0.0 mm 2.24 in56.9 mm
03:45 PM 46.2°F7.9°C 46.0°F7.8°C 99% 5.0 mph S8.0 kmh S 19.0 mph30.6 kmh 29.81 in1009.5 mb 0.00 in0.0 mm 0.00 in0.0 mm 2.24 in56.9 mm
04:00 PM 46.6°F8.1°C 46.3°F7.9°C 99% 4.0 mph S6.4 kmh S 13.0 mph20.9 kmh 29.79 in1008.8 mb 0.00 in0.0 mm 0.00 in0.0 mm 2.24 in56.9 mm
04:15 PM 46.8°F8.2°C 46.8°F8.2°C 100% 7.0 mph SW11.3 kmh SW 20.0 mph32.2 kmh 29.78 in1008.5 mb 0.00 in0.0 mm 0.00 in0.0 mm 2.24 in56.9 mm
04:30 PM 46.8°F8.2°C 46.8°F8.2°C 100% 7.0 mph SW11.3 kmh SW 24.0 mph38.6 kmh 29.77 in1008.1 mb 0.01 in0.3 mm 0.04 in1.0 mm 2.24 in56.9 mm
04:45 PM 46.8°F8.2°C 46.8°F8.2°C 100% 8.0 mph SSW12.9 kmh SSW 24.0 mph38.6 kmh 29.77 in1008.1 mb 0.06 in1.5 mm 0.20 in5.1 mm 2.29 in58.2 mm
05:00 PM 46.9°F8.3°C 46.7°F8.2°C 99% 8.0 mph S12.9 kmh S 24.0 mph38.6 kmh 29.75 in1007.5 mb 0.06 in1.5 mm 0.00 in0.0 mm 2.29 in58.2 mm
05:30 PM 40.3°F4.6°C 39.0°F3.9°C 95% 5.0 mph NNW8.0 kmh NNW 15.0 mph24.1 kmh 29.78 in1008.5 mb 0.16 in4.1 mm 0.20 in5.1 mm 2.40 in61.0 mm
07:07 PM 41.8°F5.4°C 41.8°F5.4°C 100% 15.0 mph SE24.1 kmh SE 15.0 mph24.1 kmh 29.75 in1007.5 mb 0.15 in3.8 mm 0.39 in9.9 mm 2.55 in64.8 mm
07:15 PM 41.5°F5.3°C 41.5°F5.3°C 100% 5.0 mph S8.0 kmh S 17.0 mph27.4 kmh 29.72 in1006.4 mb 0.31 in7.9 mm 1.20 in30.5 mm 2.87 in72.9 mm
07:30 PM 42.1°F5.6°C 41.0°F5.0°C 96% 3.0 mph SSW4.8 kmh SSW 12.0 mph19.3 kmh 29.72 in1006.4 mb 0.01 in0.3 mm 0.00 in0.0 mm 2.87 in72.9 mm
07:45 PM 42.1°F5.6°C 41.0°F5.0°C 96% 2.0 mph SSW3.2 kmh SSW 9.0 mph14.5 kmh 29.73 in1006.8 mb 0.01 in0.3 mm 0.00 in0.0 mm 2.87 in72.9 mm
08:00 PM 41.9°F5.5°C 40.8°F4.9°C 96% 2.0 mph S3.2 kmh S 7.0 mph11.3 kmh 29.73 in1006.8 mb 0.01 in0.3 mm 0.00 in0.0 mm 2.87 in72.9 mm
08:15 PM 42.1°F5.6°C 41.3°F5.2°C 97% 2.0 mph SSE3.2 kmh SSE 9.0 mph14.5 kmh 29.72 in1006.4 mb 0.00 in0.0 mm 0.00 in0.0 mm 2.87 in72.9 mm
08:30 PM 41.7°F5.4°C 40.9°F4.9°C 97% 2.0 mph SE3.2 kmh SE 10.0 mph16.1 kmh 29.72 in1006.4 mb 0.00 in0.0 mm 0.00 in0.0 mm 2.87 in72.9 mm
08:45 PM 41.4°F5.2°C 41.4°F5.2°C 100% 3.0 mph SSE4.8 kmh SSE 8.0 mph12.9 kmh 29.72 in1006.4 mb 0.00 in0.0 mm 0.00 in0.0 mm 2.87 in72.9 mm
09:00 PM 41.4°F5.2°C 41.4°F5.2°C 100% 2.0 mph S3.2 kmh S 7.0 mph11.3 kmh 29.71 in1006.1 mb 0.01 in0.3 mm 0.01 in0.3 mm 2.87 in72.9 mm
09:15 PM 41.4°F5.2°C 41.4°F5.2°C 100% 2.0 mph S3.2 kmh S 8.0 mph12.9 kmh 29.71 in1006.1 mb 0.05 in1.3 mm 0.16 in4.1 mm 2.91 in73.9 mm
09:30 PM 41.4°F5.2°C 41.4°F5.2°C 100% 1.0 mph WSW1.6 kmh WSW 6.0 mph9.7 kmh 29.71 in1006.1 mb 0.17 in4.3 mm 0.48 in12.2 mm 3.03 in77.0 mm
09:45 PM 41.5°F5.3°C 41.5°F5.3°C 100% Calm Calm 2.0 mph3.2 kmh 29.70 in1005.8 mb 0.24 in6.1 mm 0.28 in7.1 mm 3.10 in78.7 mm
10:15 PM 41.5°F5.3°C 41.5°F5.3°C 100% Calm Calm 1.0 mph1.6 kmh 29.70 in1005.8 mb 0.39 in9.9 mm 0.30 in7.6 mm 3.31 in84.1 mm
10:30 PM 41.4°F5.2°C 41.4°F5.2°C 100% 2.0 mph NNE3.2 kmh NNE 5.0 mph8.0 kmh 29.71 in1006.1 mb 0.35 in8.9 mm 0.00 in0.0 mm 3.38 in85.9 mm
10:45 PM 40.1°F4.5°C 39.3°F4.1°C 97% 5.0 mph SW8.0 kmh SW 29.0 mph46.7 kmh 29.73 in1006.8 mb 0.35 in8.9 mm 0.00 in0.0 mm 3.46 in87.9 mm
11:00 PM 39.7°F4.3°C 39.7°F4.3°C 100% 6.0 mph NE9.7 kmh NE 20.0 mph32.2 kmh 29.73 in1006.8 mb 0.35 in8.9 mm 0.00 in0.0 mm 1.68 in42.7 mm
11:15 PM 39.7°F4.3°C 39.7°F4.3°C 100% 7.0 mph SW11.3 kmh SW 31.0 mph49.9 kmh 29.73 in1006.8 mb 0.31 in7.9 mm 0.00 in0.0 mm 0.05 in1.3 mm
11:30 PM 39.7°F4.3°C 39.7°F4.3°C 100% 7.0 mph SSW11.3 kmh SSW 21.0 mph33.8 kmh 29.73 in1006.8 mb 0.27 in6.9 mm 0.00 in0.0 mm 0.07 in1.8 mm
11:45 PM 39.0°F3.9°C 39.0°F3.9°C 100% 7.0 mph SW11.3 kmh SW 25.0 mph40.2 kmh 29.76 in1007.8 mb 0.18 in4.6 mm 0.00 in0.0 mm 0.09 in2.3 mm